Terminal Aerodrome Forecast
Issued by NWS Charleston, SC

Home | Current Version | Previous Version | Text Only | Print | Product List | Glossary On
Versions: 1 2 3 4 5 6 7 8 9 10 11 12 13 14 15 16 17
000
FTUS42 KCHS 272300
TAFCHS
TAF
KCHS 272334Z 2800/2824 VRB03KT P6SM BKN200
     FM281000 VRB03KT 6SM BR SCT003 BKN010
     FM281500 23008KT P6SM BKN015
     FM281900 23008KT P6SM SCT025=

USA.gov is the U.S. government's official web portal to all federal, state and local government web resources and services.